Lulu Pass Weather Station

This weather station provides temperature, relative humidity (RH), wind speed, gust or max wind speed, and wind direction at 10014ft near Lulu Pass at the head of Fisher Creek. This data can be used with temperature and precipitation data from the Fisher Creek SNOTEL site.

This weather station was purchased by the Friends of the Avalanche Center.

If the data has not been updated recently you can view it directly on datagarrison.com

Elevation
10014ft
Jump to table bottom
Date Time Temperature
deg F
RH, % Wind Speed Wind Gust Wind Direction
09/28/20 18:00 44.1 51 13 18 NW - 312
09/28/20 17:00 43.0 50 15 22 NW - 314
09/28/20 16:00 43.0 46 14 22 NW - 309
09/28/20 15:00 40.3 47 17 23 NW - 317
09/28/20 14:00 37.8 47 16 23 NW - 314
09/28/20 13:00 35.6 57 16 21 NW - 317
09/28/20 12:00 30.8 64 12 18 NW - 316
09/28/20 11:00 29.1 67 11 16 NW - 312
09/28/20 10:00 27.1 70 8 12 NW - 314
09/28/20 09:00 23.9 80 5 8 NW - 334
09/28/20 08:00 20.7 85 7 10 N - 347
09/28/20 07:00 20.5 85 5 8 NW - 330
09/28/20 06:00 20.9 84 7 10 NW - 327
09/28/20 05:00 20.4 84 5 8 NW - 327
09/28/20 04:00 21.6 84 7 12 NW - 330
09/28/20 03:00 22.1 83 10 14 NW - 331
09/28/20 02:00 23.1 80 13 16 NW - 331
09/28/20 01:00 23.1 79 17 23 NW - 321
09/28/20 00:00 24.0 77 14 20 NW - 324
09/27/20 23:00 24.4 76 13 19 NW - 324
09/27/20 22:00 24.8 73 17 20 NW - 324
09/27/20 21:00 25.1 70 15 20 NW - 317
09/27/20 20:00 25.5 68 15 20 NW - 314
09/27/20 19:00 26.6 66 17 29 NW - 313
09/27/20 18:00 28.4 56 22 32 NW - 314
09/27/20 17:00 30.0 52 22 31 NW - 323
09/27/20 16:00 30.2 52 17 28 NW - 313
09/27/20 15:00 31.5 58 13 23 NW - 330
09/27/20 14:00 27.2 58 14 22 NW - 326
09/27/20 13:00 26.5 81 14 21 N - 338
09/27/20 12:00 25.6 93 16 24 NW - 327
09/27/20 11:00 24.9 95 13 21 NW - 319
09/27/20 10:00 24.0 96 11 18 NW - 321
09/27/20 09:00 22.4 96 10 14 NW - 327
09/27/20 08:00 21.9 96 12 16 NW - 323
09/27/20 07:00 22.0 96 10 15 NW - 310
09/27/20 06:00 22.1 96 12 17 NW - 314
09/27/20 05:00 21.8 95 10 16 NW - 326
09/27/20 04:00 21.7 94 13 17 N - 338
09/27/20 03:00 22.6 84 15 22 NW - 326
09/27/20 02:00 23.8 77 17 22 NW - 326
09/27/20 01:00 24.1 79 22 31 NW - 323
09/27/20 00:00 26.0 66 20 40 NW - 312
09/26/20 23:00 25.3 80 25 41 NW - 329
09/26/20 22:00 28.2 64 26 43 NW - 310
09/26/20 21:00 30.1 62 20 36 NW - 302
09/26/20 20:00 30.8 62 24 45 NW - 303
09/26/20 19:00 31.7 59 21 41 NW - 298
09/26/20 18:00 32.6 58 26 42 NW - 305
09/26/20 17:00 32.4 64 25 45 NW - 303